Time;durP1;ratioP1;P1;durP2;ratioP2;P2;SDS_P1;SDS_P2;PMS_P1;PMS_P2;Temp;Humidity;BMP_temperature;BMP_pressure;BME280_temperature;BME280_humidity;BME280_pressure;Samples;Min_cycle;Max_cycle;Signal;HPM_P1;HPM_P2
2024/01/20 00:01:55;;;;;;;32.13;10.97;;;-3.70;99.90;;;;;;5021150;28;20168;-86
2024/01/20 00:04:20;;;;;;;32.63;12.03;;;-3.70;99.90;;;;;;5039250;28;20198;-86
2024/01/20 00:06:46;;;;;;;31.67;10.80;;;-3.70;99.90;;;;;;5038354;28;20274;-86
2024/01/20 00:09:12;;;;;;;35.27;11.53;;;-3.70;99.90;;;;;;5039009;28;20522;-87
2024/01/20 00:11:40;;;;;;;32.20;11.30;;;-3.70;99.90;;;;;;5021288;28;20531;-86
2024/01/20 00:14:06;;;;;;;39.53;10.30;;;-3.70;99.90;;;;;;5038594;28;20180;-86
2024/01/20 00:16:31;;;;;;;33.77;11.07;;;-3.70;99.90;;;;;;5020722;28;20208;-86
2024/01/20 00:18:57;;;;;;;27.37;10.33;;;-3.70;99.90;;;;;;5038285;28;20203;-86
2024/01/20 00:21:23;;;;;;;26.23;9.10;;;-3.70;99.90;;;;;;5020709;28;20171;-86
2024/01/20 00:23:49;;;;;;;29.60;10.18;;;-3.70;99.90;;;;;;5038386;28;20168;-85
2024/01/20 00:26:15;;;;;;;27.20;9.15;;;-3.70;99.90;;;;;;5037884;28;20282;-85
2024/01/20 00:28:41;;;;;;;29.77;9.73;;;-3.70;99.90;;;;;;5037754;28;20203;-85
2024/01/20 00:31:07;;;;;;;28.60;9.60;;;-3.60;99.90;;;;;;5037779;28;20499;-86
2024/01/20 00:33:32;;;;;;;32.90;10.33;;;-3.70;99.90;;;;;;5020687;28;20637;-84
2024/01/20 00:35:58;;;;;;;31.50;9.07;;;-3.70;99.90;;;;;;5037884;28;20207;-85
2024/01/20 00:38:25;;;;;;;27.00;8.70;;;-3.70;99.90;;;;;;5037971;28;20160;-86
2024/01/20 00:40:51;;;;;;;26.27;8.82;;;-3.70;99.90;;;;;;5038339;28;20179;-86
2024/01/20 00:43:17;;;;;;;28.70;9.05;;;-3.70;99.90;;;;;;5020395;28;20168;-86
2024/01/20 00:45:43;;;;;;;29.70;8.60;;;-3.80;99.90;;;;;;5038777;28;20175;-86
2024/01/20 00:48:08;;;;;;;30.30;9.80;;;-3.80;99.90;;;;;;5020750;28;20474;-86
2024/01/20 00:50:34;;;;;;;26.83;9.40;;;-3.80;99.90;;;;;;5038803;28;20760;-85
2024/01/20 00:53:00;;;;;;;33.03;10.17;;;-3.90;99.90;;;;;;5038221;28;20176;-86
2024/01/20 00:55:25;;;;;;;26.30;8.37;;;-3.90;99.90;;;;;;5020182;28;20284;-86
2024/01/20 00:57:51;;;;;;;32.33;10.00;;;-3.90;99.90;;;;;;5019201;28;20435;-86
2024/01/20 01:00:17;;;;;;;26.63;8.90;;;-3.80;99.90;;;;;;5020413;28;20201;-86
2024/01/20 01:02:43;;;;;;;26.60;9.40;;;-3.80;99.90;;;;;;5019973;28;20657;-87
2024/01/20 01:05:09;;;;;;;29.50;9.53;;;-3.80;99.90;;;;;;5038552;28;20980;-86
2024/01/20 01:07:35;;;;;;;28.73;10.02;;;-3.80;99.90;;;;;;5020237;28;20213;-86
2024/01/20 01:10:03;;;;;;;28.88;9.13;;;-3.80;99.90;;;;;;5037425;28;20172;-86
2024/01/20 01:12:29;;;;;;;29.83;10.10;;;-3.90;99.90;;;;;;5018453;28;20554;-84
2024/01/20 01:14:55;;;;;;;37.67;12.40;;;-3.90;99.90;;;;;;5019218;28;20187;-86
2024/01/20 01:17:21;;;;;;;42.60;13.57;;;-3.90;99.90;;;;;;5022065;28;20198;-86
2024/01/20 01:19:47;;;;;;;32.65;11.25;;;-3.90;99.90;;;;;;5022252;28;20406;-86
2024/01/20 01:22:13;;;;;;;32.83;11.00;;;-3.90;99.90;;;;;;5039857;28;20193;-86
2024/01/20 01:24:38;;;;;;;32.37;11.00;;;-4.00;99.90;;;;;;5021876;28;20176;-86
2024/01/20 01:27:05;;;;;;;34.73;11.53;;;-3.90;99.90;;;;;;5037233;28;20192;-86
2024/01/20 01:29:31;;;;;;;29.35;10.68;;;-4.00;99.90;;;;;;5037512;28;20168;-86
2024/01/20 01:31:57;;;;;;;27.37;8.47;;;-4.00;99.90;;;;;;5037150;28;20172;-86
2024/01/20 01:34:22;;;;;;;31.30;9.97;;;-4.00;99.90;;;;;;5019430;28;20168;-87
2024/01/20 01:36:48;;;;;;;27.30;9.80;;;-4.10;99.90;;;;;;5019414;28;20204;-86
2024/01/20 01:39:16;;;;;;;28.67;10.47;;;-4.10;99.90;;;;;;5019264;28;20212;-86
2024/01/20 01:41:42;;;;;;;31.45;10.40;;;-4.10;99.90;;;;;;5019389;28;20417;-86
2024/01/20 01:44:07;;;;;;;24.33;7.90;;;-4.10;99.90;;;;;;5019611;28;20167;-86
2024/01/20 01:46:34;;;;;;;27.20;8.80;;;-4.10;99.90;;;;;;5036882;28;20202;-86
2024/01/20 01:49:00;;;;;;;24.25;8.52;;;-4.20;99.90;;;;;;5036882;28;20167;-87
2024/01/20 01:51:26;;;;;;;28.30;9.55;;;-4.10;99.90;;;;;;5037230;28;20164;-86
2024/01/20 01:53:53;;;;;;;28.30;8.18;;;-4.20;99.90;;;;;;5036608;28;20247;-86
2024/01/20 01:56:19;;;;;;;26.38;7.70;;;-4.20;99.90;;;;;;5037132;28;20208;-86
2024/01/20 01:58:45;;;;;;;30.55;9.13;;;-4.20;99.90;;;;;;5036872;28;20160;-86
2024/01/20 02:01:11;;;;;;;27.85;8.65;;;-4.10;99.90;;;;;;5036743;28;20160;-86
2024/01/20 02:03:38;;;;;;;23.70;7.53;;;-4.10;99.90;;;;;;5037107;28;20174;-87
2024/01/20 02:06:05;;;;;;;24.17;8.38;;;-4.10;99.90;;;;;;5036874;28;20261;-86
2024/01/20 02:08:31;;;;;;;29.17;9.43;;;-4.20;99.90;;;;;;5035771;28;20210;-86
2024/01/20 02:10:57;;;;;;;25.93;7.50;;;-4.20;99.90;;;;;;5019598;28;20173;-86
2024/01/20 02:13:23;;;;;;;32.22;8.02;;;-4.20;99.90;;;;;;5018582;28;20416;-86
2024/01/20 02:15:49;;;;;;;24.50;7.93;;;-4.30;99.90;;;;;;5036953;28;20202;-86
2024/01/20 02:18:20;;;;;;;30.57;9.10;;;-4.30;99.90;;;;;;5036500;28;20185;-87
2024/01/20 02:20:46;;;;;;;25.95;8.50;;;-4.30;99.90;;;;;;5036474;28;20472;-87
2024/01/20 02:23:12;;;;;;;26.13;8.70;;;-4.30;99.90;;;;;;5036271;28;20598;-86
2024/01/20 02:25:37;;;;;;;25.00;7.97;;;-4.20;99.90;;;;;;5037041;28;20411;-86
2024/01/20 02:28:03;;;;;;;27.00;8.63;;;-4.10;99.90;;;;;;5036252;28;20191;-86
2024/01/20 02:30:29;;;;;;;24.73;7.83;;;-4.20;99.90;;;;;;5036418;28;20174;-86
2024/01/20 02:32:55;;;;;;;28.80;9.30;;;-4.20;99.90;;;;;;5036467;28;20490;-86
2024/01/20 02:35:21;;;;;;;25.23;7.87;;;-4.30;99.90;;;;;;5036293;28;20670;-86
2024/01/20 02:37:46;;;;;;;25.67;7.20;;;-4.30;99.90;;;;;;5036545;28;20545;-86
2024/01/20 02:40:12;;;;;;;28.50;9.40;;;-4.30;99.90;;;;;;5035949;28;20410;-86
2024/01/20 02:42:38;;;;;;;24.03;7.73;;;-4.30;99.90;;;;;;5036639;28;20406;-86
2024/01/20 02:45:04;;;;;;;26.17;8.47;;;-4.40;99.90;;;;;;5036698;28;20171;-86
2024/01/20 02:47:30;;;;;;;27.58;7.57;;;-4.40;99.90;;;;;;5018974;28;20211;-86
2024/01/20 02:49:55;;;;;;;27.50;8.33;;;-4.40;99.90;;;;;;5036196;28;20160;-86
2024/01/20 02:52:21;;;;;;;25.97;8.80;;;-4.50;99.90;;;;;;5036667;28;20159;-87
2024/01/20 02:54:46;;;;;;;32.13;10.17;;;-4.50;99.90;;;;;;5019233;28;20166;-86
2024/01/20 02:57:12;;;;;;;27.47;8.50;;;-4.40;99.90;;;;;;5018505;28;20237;-86
2024/01/20 02:59:38;;;;;;;23.53;7.20;;;-4.40;99.90;;;;;;5036318;28;20163;-86
2024/01/20 03:02:04;;;;;;;26.30;10.20;;;-4.50;99.90;;;;;;5036555;28;20166;-86
2024/01/20 03:04:29;;;;;;;26.07;8.83;;;-4.60;99.90;;;;;;5036478;28;20210;-86
2024/01/20 03:06:55;;;;;;;25.40;8.07;;;-4.60;99.90;;;;;;5036736;28;20446;-86
2024/01/20 03:09:21;;;;;;;22.47;7.70;;;-4.50;99.90;;;;;;5036366;28;20326;-86
2024/01/20 03:11:46;;;;;;;30.63;8.73;;;-4.50;99.90;;;;;;5036771;28;20167;-85
2024/01/20 03:14:12;;;;;;;25.60;8.40;;;-4.60;99.90;;;;;;5036387;28;20250;-86
2024/01/20 03:16:38;;;;;;;25.77;7.40;;;-4.60;99.90;;;;;;5018256;28;20208;-86
2024/01/20 03:19:05;;;;;;;25.08;6.35;;;-4.70;99.90;;;;;;5018960;28;20478;-86
2024/01/20 03:21:31;;;;;;;25.75;7.80;;;-4.60;99.90;;;;;;5039700;28;20164;-86
2024/01/20 03:23:57;;;;;;;24.43;7.60;;;-4.60;99.90;;;;;;5022394;28;20171;-86
2024/01/20 03:26:22;;;;;;;31.80;9.37;;;-4.60;99.90;;;;;;5040016;28;20196;-86
2024/01/20 03:28:48;;;;;;;26.57;9.47;;;-4.60;99.90;;;;;;5039586;28;20649;-86
2024/01/20 03:31:14;;;;;;;25.53;7.80;;;-4.60;99.90;;;;;;5021912;28;20183;-86
2024/01/20 03:33:40;;;;;;;25.73;8.30;;;-4.50;99.90;;;;;;5040018;28;20492;-86
2024/01/20 03:36:06;;;;;;;26.40;7.70;;;-4.50;99.90;;;;;;5021535;28;20637;-86
2024/01/20 03:38:31;;;;;;;29.35;8.98;;;-4.60;99.90;;;;;;5021709;28;20208;-86
2024/01/20 03:40:57;;;;;;;28.00;8.77;;;-4.60;99.90;;;;;;5039477;28;20528;-86
2024/01/20 03:43:23;;;;;;;29.50;9.37;;;-4.70;99.90;;;;;;5021705;28;20199;-86
2024/01/20 03:45:49;;;;;;;26.93;7.87;;;-4.70;99.90;;;;;;5021956;28;20803;-86
2024/01/20 03:48:15;;;;;;;24.92;7.70;;;-4.70;99.90;;;;;;5021547;28;20204;-86
2024/01/20 03:50:41;;;;;;;25.45;7.72;;;-4.70;99.90;;;;;;5039611;28;20171;-86
2024/01/20 03:53:07;;;;;;;30.23;9.07;;;-4.70;99.90;;;;;;5039287;28;20196;-86
2024/01/20 03:55:32;;;;;;;34.70;8.80;;;-4.70;99.90;;;;;;5039340;28;20195;-84
2024/01/20 03:57:58;;;;;;;30.50;9.70;;;-4.70;99.90;;;;;;5039137;28;20424;-86
2024/01/20 04:00:24;;;;;;;24.90;8.33;;;-4.70;99.90;;;;;;5021905;28;20419;-86
2024/01/20 04:02:49;;;;;;;30.63;9.30;;;-4.70;99.90;;;;;;5039525;28;20202;-86
2024/01/20 04:05:18;;;;;;;30.60;9.07;;;-4.70;99.90;;;;;;5039682;28;20165;-86
2024/01/20 04:07:44;;;;;;;28.30;8.82;;;-4.70;99.90;;;;;;5038912;28;20214;-86
2024/01/20 04:10:09;;;;;;;29.57;9.67;;;-4.70;99.90;;;;;;5040036;28;20519;-86
2024/01/20 04:12:40;;;;;;;34.13;8.70;;;-4.70;99.90;;;;;;5039230;28;20541;-86
2024/01/20 04:15:06;;;;;;;27.27;9.18;;;-4.70;99.90;;;;;;5039399;28;20171;-86
2024/01/20 04:17:32;;;;;;;28.27;8.55;;;-4.70;99.90;;;;;;5038904;28;20187;-86
2024/01/20 04:19:57;;;;;;;26.10;8.70;;;-4.80;99.90;;;;;;5021260;28;20169;-86
2024/01/20 04:22:23;;;;;;;28.90;9.03;;;-4.70;99.90;;;;;;5021200;28;20193;-86
2024/01/20 04:24:49;;;;;;;25.83;8.00;;;-4.70;99.90;;;;;;5039101;28;20164;-86
2024/01/20 04:27:14;;;;;;;23.23;7.13;;;-4.80;99.90;;;;;;5021256;28;20196;-86
2024/01/20 04:29:40;;;;;;;29.13;8.97;;;-4.80;99.90;;;;;;5038735;28;20170;-85
2024/01/20 04:32:06;;;;;;;25.50;7.97;;;-4.80;99.90;;;;;;5020076;28;20255;-85
2024/01/20 04:34:31;;;;;;;25.87;8.50;;;-4.90;99.90;;;;;;5039109;28;20167;-85
2024/01/20 04:36:57;;;;;;;29.13;9.67;;;-4.90;99.90;;;;;;5038306;28;20761;-85
2024/01/20 04:39:23;;;;;;;25.10;8.50;;;-4.90;99.90;;;;;;5038865;28;20189;-84
2024/01/20 04:41:48;;;;;;;25.37;9.07;;;-4.80;99.90;;;;;;5038888;28;20197;-85
2024/01/20 04:44:14;;;;;;;31.30;9.37;;;-4.90;99.90;;;;;;5038070;28;20155;-85
2024/01/20 04:46:40;;;;;;;25.17;8.47;;;-4.90;99.90;;;;;;5038864;28;20190;-85
2024/01/20 04:49:05;;;;;;;26.97;9.10;;;-4.90;99.90;;;;;;5038196;28;20306;-85
2024/01/20 04:51:31;;;;;;;33.47;9.40;;;-4.80;99.90;;;;;;5038954;28;20173;-85
2024/01/20 04:53:56;;;;;;;28.33;8.37;;;-4.80;99.90;;;;;;5020689;28;20542;-85
2024/01/20 04:56:22;;;;;;;25.57;8.30;;;-4.90;99.90;;;;;;5038240;28;20572;-85
2024/01/20 04:58:49;;;;;;;24.83;7.33;;;-4.90;99.90;;;;;;5038380;28;20167;-85
2024/01/20 05:01:15;;;;;;;26.85;7.75;;;-4.90;99.90;;;;;;5020488;28;20203;-85
2024/01/20 05:03:41;;;;;;;25.65;8.40;;;-4.90;99.90;;;;;;5038309;28;20178;-84
2024/01/20 05:06:06;;;;;;;32.63;9.20;;;-4.90;99.90;;;;;;5038038;28;20162;-85
2024/01/20 05:08:32;;;;;;;26.30;8.20;;;-4.90;99.90;;;;;;5038156;28;20184;-84
2024/01/20 05:10:58;;;;;;;35.63;11.47;;;-4.80;99.90;;;;;;5038017;28;20172;-85
2024/01/20 05:13:24;;;;;;;27.73;9.37;;;-4.80;99.90;;;;;;5020369;28;20771;-85
2024/01/20 05:15:50;;;;;;;29.98;8.57;;;-4.90;99.90;;;;;;5038047;28;20187;-85
2024/01/20 05:18:16;;;;;;;31.60;9.23;;;-4.90;99.90;;;;;;5020561;28;20194;-85
2024/01/20 05:20:42;;;;;;;34.50;8.50;;;-5.00;99.90;;;;;;5037555;28;20170;-85
2024/01/20 05:23:07;;;;;;;26.77;8.27;;;-5.00;99.90;;;;;;5037023;28;20409;-86
2024/01/20 05:25:33;;;;;;;26.60;9.63;;;-5.10;99.90;;;;;;5036616;28;20183;-86
2024/01/20 05:27:59;;;;;;;27.57;8.20;;;-5.10;99.90;;;;;;5036779;28;20194;-86
2024/01/20 05:30:25;;;;;;;25.77;8.03;;;-5.20;99.90;;;;;;5036796;28;20415;-86
2024/01/20 05:32:50;;;;;;;31.88;9.70;;;-5.20;99.90;;;;;;5036830;28;20176;-86
2024/01/20 05:35:16;;;;;;;33.00;9.43;;;-5.30;99.90;;;;;;5019992;28;20201;-86
2024/01/20 05:37:42;;;;;;;26.50;8.03;;;-5.40;99.90;;;;;;5019391;28;20187;-86
2024/01/20 05:40:14;;;;;;;25.47;7.17;;;-5.40;99.90;;;;;;5036733;28;20167;-86
2024/01/20 05:42:39;;;;;;;30.27;8.32;;;-5.40;99.90;;;;;;5037261;28;20242;-86
2024/01/20 05:45:08;;;;;;;32.07;10.03;;;-5.40;99.90;;;;;;5036452;28;20646;-86
2024/01/20 05:47:35;;;;;;;41.40;9.80;;;-5.30;99.90;;;;;;5036633;28;20182;-86
2024/01/20 05:50:02;;;;;;;32.35;9.57;;;-5.30;99.90;;;;;;5036832;28;20163;-86
2024/01/20 05:52:28;;;;;;;25.98;8.35;;;-5.40;99.90;;;;;;5018851;28;20167;-86
2024/01/20 05:54:54;;;;;;;28.07;9.30;;;-5.40;99.90;;;;;;5036838;28;20221;-86
2024/01/20 05:57:19;;;;;;;27.10;9.50;;;-5.40;99.90;;;;;;5036008;28;20206;-86
2024/01/20 05:59:45;;;;;;;33.67;10.10;;;-5.40;99.90;;;;;;5036384;28;20216;-86
2024/01/20 06:02:11;;;;;;;31.20;8.70;;;-5.50;99.90;;;;;;5018709;28;20177;-86
2024/01/20 06:04:36;;;;;;;29.30;10.13;;;-5.50;99.90;;;;;;5036593;28;20408;-85
2024/01/20 06:07:02;;;;;;;27.83;10.73;;;-5.50;99.90;;;;;;5019155;28;20199;-84
2024/01/20 06:09:28;;;;;;;25.93;8.97;;;-5.50;99.90;;;;;;5037186;28;20169;-85
2024/01/20 06:11:53;;;;;;;32.33;10.47;;;-5.50;99.90;;;;;;5036208;28;20178;-85
2024/01/20 06:14:19;;;;;;;36.33;10.30;;;-5.50;99.90;;;;;;5036210;28;20167;-86
2024/01/20 06:16:45;;;;;;;30.67;11.03;;;-5.50;99.90;;;;;;5036209;28;20252;-86
2024/01/20 06:19:10;;;;;;;32.10;10.13;;;-5.50;99.90;;;;;;5036842;28;20170;-85
2024/01/20 06:21:36;;;;;;;31.00;10.77;;;-5.60;99.90;;;;;;5036396;28;20164;-86
2024/01/20 06:24:02;;;;;;;33.83;10.97;;;-5.70;99.90;;;;;;5036687;28;20245;-85
2024/01/20 06:26:28;;;;;;;34.55;11.20;;;-5.70;99.90;;;;;;5036212;28;20211;-86
2024/01/20 06:28:54;;;;;;;31.23;11.13;;;-5.70;99.90;;;;;;5035888;28;20636;-86
2024/01/20 06:31:23;;;;;;;32.67;10.83;;;-5.80;99.90;;;;;;5035835;28;20184;-85
2024/01/20 06:33:50;;;;;;;27.73;9.77;;;-5.70;99.90;;;;;;5035863;28;20197;-85
2024/01/20 06:36:15;;;;;;;29.08;9.80;;;-5.80;99.90;;;;;;5035587;28;20199;-86
2024/01/20 06:38:41;;;;;;;31.83;11.17;;;-5.80;99.90;;;;;;5035594;28;20163;-84
2024/01/20 06:41:10;;;;;;;28.67;9.27;;;-5.80;99.90;;;;;;5018338;28;20166;-86
2024/01/20 06:43:35;;;;;;;33.97;11.23;;;-5.80;99.90;;;;;;5036912;28;20430;-85
2024/01/20 06:46:01;;;;;;;36.43;11.17;;;-5.70;99.90;;;;;;5037265;28;20575;-85
2024/01/20 06:48:32;;;;;;;29.20;10.40;;;-5.70;99.90;;;;;;5037883;28;20414;-86
2024/01/20 06:50:59;;;;;;;32.13;9.55;;;-5.60;99.90;;;;;;5038277;28;20688;-85
2024/01/20 06:53:26;;;;;;;34.38;11.18;;;-5.70;99.90;;;;;;5019626;28;20169;-84
2024/01/20 06:55:52;;;;;;;31.60;11.50;;;-5.70;99.90;;;;;;5038820;28;20187;-86
2024/01/20 06:58:18;;;;;;;31.10;10.57;;;-5.70;99.90;;;;;;5040658;28;20272;-86
2024/01/20 07:00:43;;;;;;;32.57;11.10;;;-5.60;99.90;;;;;;5040784;28;20790;-86
2024/01/20 07:03:09;;;;;;;33.23;10.93;;;-5.60;99.90;;;;;;5041189;28;20171;-86
2024/01/20 07:05:35;;;;;;;28.80;10.17;;;-5.70;99.90;;;;;;5023084;28;20172;-86
2024/01/20 07:08:00;;;;;;;29.30;11.27;;;-5.60;99.90;;;;;;5041122;28;20203;-86
2024/01/20 07:10:26;;;;;;;30.43;11.57;;;-5.70;99.90;;;;;;5040559;28;20176;-85
2024/01/20 07:12:52;;;;;;;29.50;10.73;;;-5.60;99.90;;;;;;5040693;28;20220;-86
2024/01/20 07:15:17;;;;;;;40.27;10.90;;;-5.60;99.90;;;;;;5022800;28;20702;-85
2024/01/20 07:17:43;;;;;;;29.03;10.17;;;-5.60;99.90;;;;;;5040539;28;20418;-86
2024/01/20 07:20:10;;;;;;;32.60;10.83;;;-5.50;99.90;;;;;;5040823;28;20159;-86
2024/01/20 07:22:36;;;;;;;31.90;11.73;;;-5.50;99.90;;;;;;5041235;28;20154;-86
2024/01/20 07:25:03;;;;;;;37.00;11.20;;;-5.50;99.90;;;;;;5040905;28;20517;-86
2024/01/20 07:27:29;;;;;;;32.47;10.48;;;-5.50;99.90;;;;;;5040829;28;20257;-86
2024/01/20 07:29:54;;;;;;;29.43;10.30;;;-5.60;99.90;;;;;;5040386;28;20186;-86
2024/01/20 07:32:20;;;;;;;34.00;10.70;;;-5.60;99.90;;;;;;5040660;28;20225;-86
2024/01/20 07:34:45;;;;;;;33.00;11.47;;;-5.70;99.90;;;;;;5040717;28;20252;-86
2024/01/20 07:37:11;;;;;;;31.30;11.57;;;-5.70;99.90;;;;;;5040883;28;20237;-86
2024/01/20 07:39:37;;;;;;;31.47;11.10;;;-5.70;99.90;;;;;;5040758;28;20176;-86
2024/01/20 07:42:03;;;;;;;35.13;10.80;;;-5.70;99.90;;;;;;5040764;28;20806;-86
2024/01/20 07:44:29;;;;;;;46.78;11.77;;;-5.60;99.90;;;;;;5040726;28;20194;-86
2024/01/20 07:46:56;;;;;;;32.90;10.83;;;-5.60;99.90;;;;;;5022313;28;20190;-85
2024/01/20 07:49:22;;;;;;;28.63;9.80;;;-5.70;99.90;;;;;;5039803;28;20194;-85
2024/01/20 07:51:48;;;;;;;29.60;10.50;;;-5.50;99.90;;;;;;5039942;28;20167;-86
2024/01/20 07:54:16;;;;;;;33.50;12.20;;;-5.60;99.90;;;;;;5040507;28;20413;-86
2024/01/20 07:56:42;;;;;;;32.63;11.98;;;-5.60;99.90;;;;;;5022474;28;20198;-86
2024/01/20 07:59:07;;;;;;;37.80;12.60;;;-5.60;99.90;;;;;;5041908;28;20191;-86
2024/01/20 08:01:33;;;;;;;36.87;12.37;;;-5.60;99.90;;;;;;5041529;28;20167;-86
2024/01/20 08:03:58;;;;;;;30.20;11.67;;;-5.60;99.90;;;;;;5023517;28;20168;-86
2024/01/20 08:06:24;;;;;;;35.63;12.37;;;-5.60;99.90;;;;;;5039993;28;20191;-86
2024/01/20 08:08:50;;;;;;;36.67;11.23;;;-5.70;99.90;;;;;;5039589;28;20187;-85
2024/01/20 08:11:15;;;;;;;34.20;12.70;;;-5.60;99.90;;;;;;5021769;28;20179;-86
2024/01/20 08:13:41;;;;;;;29.97;12.07;;;-5.60;99.90;;;;;;5022284;28;20181;-86
2024/01/20 08:16:07;;;;;;;33.63;12.83;;;-5.50;99.90;;;;;;5039907;28;20655;-86
2024/01/20 08:18:32;;;;;;;40.70;13.67;;;-5.50;99.90;;;;;;5022351;28;20205;-86
2024/01/20 08:20:58;;;;;;;32.53;13.00;;;-5.50;99.90;;;;;;5039745;28;20485;-86
2024/01/20 08:23:24;;;;;;;36.23;13.57;;;-5.50;99.90;;;;;;5039838;28;20592;-86
2024/01/20 08:25:50;;;;;;;35.03;11.70;;;-5.50;99.90;;;;;;5039909;28;20206;-86
2024/01/20 08:28:15;;;;;;;36.20;12.63;;;-5.50;99.90;;;;;;5040287;28;20190;-85
2024/01/20 08:30:41;;;;;;;35.30;12.90;;;-5.30;99.90;;;;;;5022143;28;20414;-86
2024/01/20 08:33:06;;;;;;;35.50;14.40;;;-5.30;99.90;;;;;;5040664;28;20191;-86
2024/01/20 08:35:32;;;;;;;45.27;13.90;;;-5.30;99.90;;;;;;5039864;28;20183;-86
2024/01/20 08:37:58;;;;;;;39.70;13.83;;;-5.20;99.90;;;;;;5040040;28;20190;-86
2024/01/20 08:40:24;;;;;;;32.17;12.43;;;-5.20;99.90;;;;;;5022024;28;20174;-86
2024/01/20 08:42:49;;;;;;;39.90;14.20;;;-5.20;99.90;;;;;;5040086;28;20460;-86
2024/01/20 08:45:15;;;;;;;37.70;12.20;;;-5.30;99.90;;;;;;5040211;28;20163;-84
2024/01/20 08:47:41;;;;;;;35.67;13.47;;;-5.20;99.90;;;;;;5040196;28;20183;-86
2024/01/20 08:50:07;;;;;;;37.30;12.35;;;-5.20;99.90;;;;;;5022195;28;20173;-85
2024/01/20 08:52:36;;;;;;;33.40;13.18;;;-5.20;99.90;;;;;;5039388;28;20163;-86
2024/01/20 08:55:01;;;;;;;37.42;12.30;;;-5.10;99.90;;;;;;5021880;28;20197;-86
2024/01/20 08:57:29;;;;;;;40.73;13.30;;;-5.00;99.90;;;;;;5039961;28;20750;-86
2024/01/20 08:59:55;;;;;;;34.42;12.70;;;-5.00;99.90;;;;;;5021763;28;20175;-86
2024/01/20 09:02:21;;;;;;;36.20;13.33;;;-4.90;99.90;;;;;;5040205;28;20528;-85
2024/01/20 09:04:46;;;;;;;37.47;13.07;;;-4.90;99.90;;;;;;5039955;28;20159;-86
2024/01/20 09:07:12;;;;;;;35.90;12.60;;;-4.90;99.90;;;;;;5040127;28;20219;-86
2024/01/20 09:09:37;;;;;;;31.33;12.00;;;-4.80;99.90;;;;;;5040340;28;20190;-86
2024/01/20 09:12:03;;;;;;;42.03;13.90;;;-4.80;99.90;;;;;;5039819;28;20175;-86
2024/01/20 09:14:29;;;;;;;41.50;13.05;;;-4.70;99.90;;;;;;5039803;28;20186;-86
2024/01/20 09:16:55;;;;;;;36.23;13.27;;;-4.70;99.90;;;;;;5039612;28;20208;-86
2024/01/20 09:19:20;;;;;;;38.87;14.30;;;-4.60;99.90;;;;;;5039331;28;20168;-86
2024/01/20 09:21:46;;;;;;;36.63;13.37;;;-4.50;99.90;;;;;;5039652;28;20243;-86
2024/01/20 09:24:12;;;;;;;40.72;13.68;;;-4.50;99.90;;;;;;5039681;28;20182;-86
2024/01/20 09:26:38;;;;;;;38.70;14.30;;;-4.50;99.90;;;;;;5039669;28;20191;-86
2024/01/20 09:29:03;;;;;;;31.73;11.07;;;-4.40;99.90;;;;;;5039850;28;20170;-86
2024/01/20 09:31:29;;;;;;;32.10;12.03;;;-4.30;99.90;;;;;;5039773;28;20174;-86
2024/01/20 09:33:55;;;;;;;34.30;13.90;;;-4.30;99.90;;;;;;5038848;28;20171;-86
2024/01/20 09:36:20;;;;;;;40.63;14.07;;;-4.20;99.90;;;;;;5038788;28;20203;-85
2024/01/20 09:38:46;;;;;;;40.60;14.87;;;-4.10;99.90;;;;;;5038972;28;20167;-84
2024/01/20 09:41:12;;;;;;;34.60;12.30;;;-4.10;99.90;;;;;;5020782;28;20174;-86
2024/01/20 09:43:39;;;;;;;36.70;12.63;;;-4.10;99.90;;;;;;5038417;28;20180;-86
2024/01/20 09:46:05;;;;;;;37.58;13.45;;;-3.90;99.90;;;;;;5038824;28;20166;-86
2024/01/20 09:48:33;;;;;;;34.47;12.13;;;-3.90;99.90;;;;;;5020851;28;20185;-85
2024/01/20 09:50:59;;;;;;;40.13;13.10;;;-3.90;99.90;;;;;;5020328;28;20429;-86
2024/01/20 09:53:25;;;;;;;37.53;12.87;;;-3.80;99.90;;;;;;5020553;28;20669;-85
2024/01/20 09:55:51;;;;;;;39.00;12.93;;;-3.80;99.90;;;;;;5020076;28;20309;-86
2024/01/20 09:58:18;;;;;;;39.03;14.40;;;-3.70;99.90;;;;;;5020299;28;20206;-84
2024/01/20 10:00:44;;;;;;;41.33;15.20;;;-3.60;99.90;;;;;;5020398;28;21066;-85
2024/01/20 10:03:11;;;;;;;39.50;13.50;;;-3.60;99.90;;;;;;5038393;28;20173;-85
2024/01/20 10:05:37;;;;;;;43.88;13.55;;;-3.50;99.90;;;;;;5020538;28;20166;-85
2024/01/20 10:08:04;;;;;;;38.38;11.70;;;-3.50;99.90;;;;;;5037669;28;20215;-83
2024/01/20 10:10:31;;;;;;;47.70;17.90;;;-3.40;99.90;;;;;;5036925;28;20190;-85
2024/01/20 10:12:57;;;;;;;37.55;12.70;;;-3.40;99.90;;;;;;5019519;28;20178;-85
2024/01/20 10:15:28;;;;;;;38.80;15.80;;;-3.30;99.90;;;;;;5019373;28;20191;-85
2024/01/20 10:17:55;;;;;;;34.67;13.07;;;-3.20;99.90;;;;;;5036855;28;20175;-85
2024/01/20 10:20:25;;;;;;;33.83;13.30;;;-3.20;99.90;;;;;;5036829;28;20660;-85
2024/01/20 10:22:51;;;;;;;39.58;14.35;;;-3.10;99.90;;;;;;5036819;28;20152;-85
2024/01/20 10:25:21;;;;;;;31.20;13.88;;;-3.00;99.90;;;;;;5018551;28;20179;-85
2024/01/20 10:27:50;;;;;;;29.13;11.93;;;-3.00;99.90;;;;;;5018322;28;20187;-84
2024/01/20 10:30:17;;;;;;;34.72;12.93;;;-2.90;99.90;;;;;;5017630;28;20168;-85
2024/01/20 10:32:44;;;;;;;34.83;12.80;;;-2.90;99.90;;;;;;5036591;28;20164;-85
2024/01/20 10:35:13;;;;;;;32.90;11.27;;;-2.80;99.90;;;;;;5036555;28;20168;-85
2024/01/20 10:37:44;;;;;;;36.17;11.55;;;-2.80;99.90;;;;;;5018166;28;20195;-84
2024/01/20 10:40:12;;;;;;;32.13;11.73;;;-2.80;99.90;;;;;;5036541;28;20569;-84
2024/01/20 10:42:46;;;;;;;37.70;13.43;;;-2.70;99.90;;;;;;5036128;28;20195;-85
2024/01/20 10:45:17;;;;;;;37.60;14.07;;;-2.70;99.90;;;;;;5018372;28;20569;-85
2024/01/20 10:47:58;;;;;;;37.90;14.00;;;-2.50;99.90;;;;;;5035594;28;20188;-85
2024/01/20 10:50:25;;;;;;;38.50;13.75;;;-2.50;99.90;;;;;;5035339;28;20174;-85
2024/01/20 10:52:51;;;;;;;39.10;11.85;;;-2.50;99.90;;;;;;5035658;28;20211;-85
2024/01/20 10:55:18;;;;;;;36.83;12.32;;;-2.40;99.90;;;;;;5035997;28;20169;-84
2024/01/20 10:57:48;;;;;;;30.10;10.60;;;-2.40;99.90;;;;;;5035741;28;20189;-84
2024/01/20 11:00:15;;;;;;;36.55;12.25;;;-2.30;99.90;;;;;;5036100;28;20172;-84
2024/01/20 11:02:42;;;;;;;31.73;12.13;;;-2.30;99.90;;;;;;5036043;28;20169;-85
2024/01/20 11:05:17;;;;;;;32.35;12.13;;;-2.30;99.90;;;;;;5017930;28;20169;-84
2024/01/20 11:07:53;;;;;;;34.55;12.32;;;-2.20;99.90;;;;;;4995068;28;1167719;-85
2024/01/20 11:10:22;;;;;;;35.25;12.30;;;-2.10;99.90;;;;;;5036795;28;20571;-85
2024/01/20 11:12:59;;;;;;;35.25;12.98;;;-2.10;99.90;;;;;;5035915;28;20168;-85
2024/01/20 11:15:29;;;;;;;35.67;12.68;;;-2.00;99.90;;;;;;5018857;28;20172;-85
2024/01/20 11:17:55;;;;;;;33.17;12.32;;;-2.00;99.90;;;;;;5036245;28;20545;-85
2024/01/20 11:20:21;;;;;;;34.50;12.63;;;-1.90;99.90;;;;;;5036057;28;20166;-85
2024/01/20 11:22:47;;;;;;;37.60;13.50;;;-1.90;99.90;;;;;;5018635;28;20637;-84
2024/01/20 11:25:14;;;;;;;36.58;12.35;;;-1.90;99.90;;;;;;5036534;28;20247;-85
2024/01/20 11:27:49;;;;;;;38.15;12.80;;;-1.80;99.90;;;;;;5018453;28;20196;-85
2024/01/20 11:30:29;;;;;;;33.15;12.65;;;-1.70;99.90;;;;;;5036635;28;20186;-85
2024/01/20 11:32:56;;;;;;;31.80;12.75;;;-1.70;99.90;;;;;;5019787;28;20168;-85
2024/01/20 11:35:22;;;;;;;31.40;11.00;;;-1.60;99.90;;;;;;5036710;28;20169;-85
2024/01/20 11:37:48;;;;;;;36.33;12.90;;;-1.50;99.90;;;;;;5037106;28;20209;-85
2024/01/20 11:40:14;;;;;;;32.60;11.85;;;-1.50;99.90;;;;;;5037591;28;20172;-85
2024/01/20 11:42:40;;;;;;;33.10;11.60;;;-1.50;99.90;;;;;;5040891;28;20162;-85
2024/01/20 11:45:06;;;;;;;36.50;12.67;;;-1.40;99.90;;;;;;5023851;28;20173;-85
2024/01/20 11:47:32;;;;;;;34.40;12.18;;;-1.30;99.90;;;;;;5024199;28;20192;-85
2024/01/20 11:49:58;;;;;;;30.47;11.67;;;-1.30;99.90;;;;;;5041415;28;20180;-85
2024/01/20 11:52:28;;;;;;;37.05;12.80;;;-1.20;99.90;;;;;;5041576;28;20410;-85
2024/01/20 11:54:54;;;;;;;34.58;10.60;;;-1.20;99.90;;;;;;5041632;28;20170;-85
2024/01/20 11:57:31;;;;;;;38.53;11.53;;;-1.10;99.90;;;;;;5040676;28;20551;-85
2024/01/20 11:59:58;;;;;;;30.55;10.85;;;-1.00;99.90;;;;;;5023114;28;20423;-83
2024/01/20 12:02:25;;;;;;;29.75;10.48;;;-1.00;99.90;;;;;;5040972;28;20172;-84
2024/01/20 12:04:51;;;;;;;33.15;12.45;;;-0.90;99.90;;;;;;5040728;28;20496;-85
2024/01/20 12:07:17;;;;;;;37.05;12.20;;;-0.90;99.90;;;;;;5040614;28;20232;-85
2024/01/20 12:09:46;;;;;;;39.13;10.73;;;-0.80;99.90;;;;;;5040535;28;20165;-85
2024/01/20 12:12:13;;;;;;;31.65;11.10;;;-0.90;99.90;;;;;;5040766;28;20162;-85
2024/01/20 12:14:46;;;;;;;33.47;12.50;;;-0.80;99.90;;;;;;5040312;28;20166;-85
2024/01/20 12:17:12;;;;;;;35.72;11.70;;;-0.80;99.90;;;;;;5040342;28;20204;-85
2024/01/20 12:19:39;;;;;;;31.23;10.38;;;-0.80;99.90;;;;;;5040460;28;20567;-85
2024/01/20 12:22:11;;;;;;;33.47;11.48;;;-0.80;99.90;;;;;;5040945;28;20182;-85
2024/01/20 12:24:37;;;;;;;33.53;12.55;;;-0.70;99.90;;;;;;5040626;28;20218;-85
2024/01/20 12:27:06;;;;;;;31.37;11.37;;;-0.70;99.90;;;;;;5040979;28;20281;-85